createdAt,value
2018-03-08T00:00:08.260Z,26.30
2018-03-08T00:01:08.629Z,26.39
2018-03-08T00:02:08.422Z,26.37
2018-03-08T00:03:08.496Z,26.37
2018-03-08T00:04:08.604Z,26.40
2018-03-08T00:05:08.637Z,26.29
2018-03-08T00:06:08.722Z,26.35
2018-03-08T00:07:08.802Z,26.29
2018-03-08T00:08:08.940Z,26.36
2018-03-08T00:09:08.956Z,26.29
2018-03-08T00:10:09.039Z,26.36
2018-03-08T00:11:09.127Z,26.32
2018-03-08T00:12:09.226Z,26.25
2018-03-08T00:13:09.280Z,26.35
2018-03-08T00:14:09.363Z,26.37
2018-03-08T00:15:09.436Z,26.26
2018-03-08T00:16:09.508Z,26.32
2018-03-08T00:17:09.585Z,26.37
2018-03-08T00:18:09.660Z,26.32
2018-03-08T00:19:09.745Z,26.26
2018-03-08T00:20:09.835Z,26.29
2018-03-08T00:21:09.913Z,26.30
2018-03-08T00:22:09.996Z,26.28
2018-03-08T00:23:10.069Z,26.28
2018-03-08T00:24:10.135Z,26.29
2018-03-08T00:25:10.215Z,26.29
2018-03-08T00:26:10.295Z,26.25
2018-03-08T00:27:10.373Z,26.26
2018-03-08T00:28:10.454Z,26.26
2018-03-08T00:29:10.527Z,26.29
2018-03-08T00:30:10.621Z,26.28
2018-03-08T00:31:10.692Z,26.37
2018-03-08T00:32:10.768Z,26.25
2018-03-08T00:33:10.848Z,26.26
2018-03-08T00:34:10.932Z,26.29
2018-03-08T00:35:11.009Z,26.26
2018-03-08T00:36:11.088Z,26.28
2018-03-08T00:37:11.156Z,26.26
2018-03-08T00:38:11.241Z,26.26
2018-03-08T00:39:11.314Z,26.18
2018-03-08T00:40:11.407Z,26.29
2018-03-08T00:41:11.481Z,26.26
2018-03-08T00:42:11.561Z,26.18
2018-03-08T00:43:11.641Z,26.18
2018-03-08T00:44:11.730Z,26.25
2018-03-08T00:45:11.785Z,26.26
2018-03-08T00:46:11.879Z,26.15
2018-03-08T00:47:11.951Z,26.25
2018-03-08T00:48:12.034Z,26.12
2018-03-08T00:49:12.109Z,26.20
2018-03-08T00:50:12.178Z,26.13
2018-03-08T00:51:12.259Z,26.23
2018-03-08T00:52:12.337Z,26.17
2018-03-08T00:53:12.412Z,26.20
2018-03-08T00:54:12.498Z,26.20
2018-03-08T00:55:12.580Z,26.25
2018-03-08T00:56:12.664Z,26.18
2018-03-08T00:57:12.730Z,26.15
2018-03-08T00:58:12.841Z,26.21
2018-03-08T00:59:12.901Z,26.23
2018-03-08T01:00:12.969Z,26.18
2018-03-08T01:01:13.048Z,26.20
2018-03-08T01:02:13.139Z,26.23
2018-03-08T01:03:13.218Z,26.17
2018-03-08T01:04:13.273Z,26.12
2018-03-08T01:05:13.368Z,26.17
2018-03-08T01:06:13.428Z,26.13
2018-03-08T01:07:13.507Z,26.12
2018-03-08T01:08:13.602Z,26.15
2018-03-08T01:09:13.703Z,26.17
2018-03-08T01:10:13.745Z,26.13
2018-03-08T01:11:13.930Z,26.17
2018-03-08T01:12:13.907Z,26.12
2018-03-08T01:13:13.974Z,26.10
2018-03-08T01:14:14.068Z,26.12
2018-03-08T01:15:14.140Z,26.13
2018-03-08T01:16:14.216Z,26.10
2018-03-08T01:17:14.305Z,26.10
2018-03-08T01:18:14.403Z,26.17
2018-03-08T01:19:14.457Z,26.12
2018-03-08T01:20:14.536Z,26.07
2018-03-08T01:21:14.616Z,26.15
2018-03-08T01:22:14.688Z,26.13
2018-03-08T01:23:14.768Z,26.15
2018-03-08T01:24:14.854Z,26.13
2018-03-08T01:25:14.927Z,26.07
2018-03-08T01:26:15.005Z,26.07
2018-03-08T01:27:15.080Z,26.12
2018-03-08T01:28:15.156Z,26.12
2018-03-08T01:29:15.235Z,26.13
2018-03-08T01:30:15.344Z,26.12
2018-03-08T01:31:15.427Z,26.13
2018-03-08T01:32:15.474Z,26.12
2018-03-08T01:33:15.566Z,26.06
2018-03-08T01:34:15.637Z,26.09
2018-03-08T01:35:15.706Z,26.10
2018-03-08T01:36:16.161Z,26.10
2018-03-08T01:37:15.866Z,26.10
2018-03-08T01:38:15.941Z,25.97
2018-03-08T01:39:16.036Z,25.98
2018-03-08T01:40:16.110Z,25.98
2018-03-08T01:41:16.196Z,25.94
2018-03-08T01:42:16.277Z,26.02
2018-03-08T01:43:16.344Z,26.06
2018-03-08T01:44:16.428Z,26.09
2018-03-08T01:45:16.507Z,25.99
2018-03-08T01:46:16.758Z,26.09
2018-03-08T01:47:16.658Z,25.99
2018-03-08T01:48:16.748Z,26.07
2018-03-08T01:49:16.806Z,25.99
2018-03-08T01:50:16.891Z,26.02
2018-03-08T01:51:16.981Z,25.99
2018-03-08T01:52:17.051Z,25.95
2018-03-08T01:53:17.121Z,25.94
2018-03-08T01:54:17.202Z,25.97
2018-03-08T01:55:17.290Z,25.99
2018-03-08T01:56:17.372Z,25.97
2018-03-08T01:57:17.442Z,25.92
2018-03-08T01:58:17.512Z,25.99
2018-03-08T01:59:17.587Z,26.02
2018-03-08T02:00:17.683Z,25.97
2018-03-08T02:01:17.758Z,25.95
2018-03-08T02:02:17.828Z,25.98
2018-03-08T02:03:17.911Z,26.02
2018-03-08T02:04:17.985Z,25.99
2018-03-08T02:05:18.062Z,25.98
2018-03-08T02:06:18.150Z,25.98
2018-03-08T02:07:18.224Z,26.02
2018-03-08T02:08:18.296Z,25.98
2018-03-08T02:09:18.393Z,25.92
2018-03-08T02:10:18.457Z,25.94
2018-03-08T02:11:18.534Z,25.95
2018-03-08T02:12:18.618Z,25.92
2018-03-08T02:13:18.698Z,25.95
2018-03-08T02:14:18.772Z,25.94
2018-03-08T02:15:18.848Z,26.01
2018-03-08T02:16:18.937Z,25.95
2018-03-08T02:17:19.008Z,25.91
2018-03-08T02:18:19.094Z,25.99
2018-03-08T02:19:19.150Z,25.92
2018-03-08T02:20:19.237Z,25.88
2018-03-08T02:21:19.322Z,25.94
2018-03-08T02:22:19.393Z,25.98
2018-03-08T02:23:19.472Z,25.95
2018-03-08T02:24:22.431Z,26.01
2018-03-08T02:25:19.629Z,25.95
2018-03-08T02:26:19.715Z,25.95
2018-03-08T02:27:19.788Z,25.97
2018-03-08T02:28:19.860Z,25.92
2018-03-08T02:29:19.943Z,25.94
2018-03-08T02:30:20.017Z,25.98
2018-03-08T02:31:20.109Z,25.88
2018-03-08T02:32:20.191Z,25.95
2018-03-08T02:33:20.251Z,25.94
2018-03-08T02:34:20.340Z,25.94
2018-03-08T02:35:20.429Z,25.97
2018-03-08T02:36:20.493Z,25.90
2018-03-08T02:37:20.576Z,25.90
2018-03-08T02:38:20.652Z,25.94
2018-03-08T02:39:20.728Z,25.88
2018-03-08T02:40:20.800Z,25.95
2018-03-08T02:41:20.875Z,25.90
2018-03-08T02:42:20.956Z,25.97
2018-03-08T02:43:21.048Z,25.83
2018-03-08T02:44:21.120Z,25.95
2018-03-08T02:45:21.209Z,25.91
2018-03-08T02:46:21.282Z,25.97
2018-03-08T02:47:21.367Z,25.97
2018-03-08T02:48:21.446Z,25.83
2018-03-08T02:49:21.508Z,25.85
2018-03-08T02:50:21.581Z,25.88
2018-03-08T02:51:21.679Z,25.91
2018-03-08T02:52:21.758Z,25.90
2018-03-08T02:53:21.835Z,25.83
2018-03-08T02:54:21.897Z,25.85
2018-03-08T02:55:21.984Z,25.83
2018-03-08T02:56:26.898Z,25.88
2018-03-08T02:57:22.139Z,25.91
2018-03-08T02:58:22.211Z,25.92
2018-03-08T02:59:22.290Z,25.88
2018-03-08T03:00:22.366Z,25.92
2018-03-08T03:01:22.473Z,25.90
2018-03-08T03:02:22.537Z,25.85
2018-03-08T03:03:22.604Z,25.90
2018-03-08T03:04:22.704Z,25.88
2018-03-08T03:05:22.763Z,25.88
2018-03-08T03:06:22.845Z,25.91
2018-03-08T03:07:22.913Z,25.85
2018-03-08T03:08:23.010Z,25.87
2018-03-08T03:09:23.092Z,25.90
2018-03-08T03:10:23.172Z,25.85
2018-03-08T03:11:23.245Z,25.85
2018-03-08T03:12:23.305Z,25.85
2018-03-08T03:13:23.401Z,25.85
2018-03-08T03:14:23.472Z,25.80
2018-03-08T03:15:23.556Z,25.80
2018-03-08T03:16:23.619Z,25.77
2018-03-08T03:17:23.703Z,25.79
2018-03-08T03:18:23.777Z,25.83
2018-03-08T03:19:23.876Z,25.82
2018-03-08T03:20:23.936Z,25.79
2018-03-08T03:21:24.008Z,25.85
2018-03-08T03:22:24.098Z,25.80
2018-03-08T03:23:24.168Z,25.83
2018-03-08T03:24:24.251Z,25.88
2018-03-08T03:25:24.328Z,25.76
2018-03-08T03:26:29.353Z,25.82
2018-03-08T03:27:24.483Z,25.82
2018-03-08T03:28:24.575Z,25.82
2018-03-08T03:29:24.635Z,25.88
2018-03-08T03:30:24.741Z,25.87
2018-03-08T03:31:24.812Z,25.88
2018-03-08T03:32:24.878Z,25.79
2018-03-08T03:33:24.944Z,25.80
2018-03-08T03:34:25.041Z,25.85
2018-03-08T03:35:25.109Z,25.80
2018-03-08T03:36:25.201Z,25.82
2018-03-08T03:37:25.270Z,25.79
2018-03-08T03:38:25.338Z,25.85
2018-03-08T03:39:25.416Z,25.79
2018-03-08T03:40:25.507Z,25.75
2018-03-08T03:41:25.588Z,25.83
2018-03-08T03:42:25.661Z,25.82
2018-03-08T03:43:25.739Z,25.75
2018-03-08T03:44:25.809Z,25.75
2018-03-08T03:45:25.894Z,25.82
2018-03-08T03:46:25.982Z,25.82
2018-03-08T03:47:26.043Z,25.76
2018-03-08T03:48:26.125Z,25.77
2018-03-08T03:49:26.202Z,25.76
2018-03-08T03:50:26.280Z,25.70
2018-03-08T03:51:26.375Z,25.75
2018-03-08T03:52:26.449Z,25.75
2018-03-08T03:53:26.515Z,25.67
2018-03-08T03:54:26.606Z,25.77
2018-03-08T03:55:26.683Z,25.79
2018-03-08T03:56:26.754Z,25.73
2018-03-08T03:57:26.829Z,25.73
2018-03-08T03:58:26.916Z,25.70
2018-03-08T03:59:26.987Z,25.76
2018-03-08T04:00:27.068Z,25.69
2018-03-08T04:01:27.157Z,25.67
2018-03-08T04:02:27.238Z,25.70
2018-03-08T04:03:27.321Z,25.65
2018-03-08T04:04:27.382Z,25.72
2018-03-08T04:05:27.454Z,25.69
2018-03-08T04:06:27.527Z,25.72
2018-03-08T04:07:27.617Z,25.72
2018-03-08T04:08:27.691Z,25.65
2018-03-08T04:09:27.762Z,25.69
2018-03-08T04:10:27.838Z,25.75
2018-03-08T04:11:27.965Z,25.73
2018-03-08T04:12:28.011Z,25.69
2018-03-08T04:13:28.086Z,25.67
2018-03-08T04:14:28.168Z,25.70
2018-03-08T04:15:28.239Z,25.65
2018-03-08T04:16:28.320Z,25.72
2018-03-08T04:17:28.398Z,25.69
2018-03-08T04:18:28.470Z,25.65
2018-03-08T04:19:28.564Z,25.69
2018-03-08T04:20:28.655Z,25.65
2018-03-08T04:21:28.734Z,25.70
2018-03-08T04:22:28.791Z,25.65
2018-03-08T04:23:28.864Z,25.65
2018-03-08T04:24:28.961Z,25.69
2018-03-08T04:25:29.025Z,25.65
2018-03-08T04:26:29.129Z,25.62
2018-03-08T04:27:29.173Z,25.64
2018-03-08T04:28:29.256Z,25.61
2018-03-08T04:29:29.340Z,25.67
2018-03-08T04:30:29.415Z,25.64
2018-03-08T04:31:29.489Z,25.64
2018-03-08T04:32:29.575Z,25.60
2018-03-08T04:33:29.656Z,25.62
2018-03-08T04:34:29.724Z,25.60
2018-03-08T04:35:29.801Z,25.67
2018-03-08T04:36:29.873Z,25.55
2018-03-08T04:37:29.962Z,25.61
2018-03-08T04:38:30.040Z,25.62
2018-03-08T04:39:30.143Z,25.55
2018-03-08T04:40:30.216Z,25.58
2018-03-08T04:41:30.265Z,25.61
2018-03-08T04:42:30.349Z,25.61
2018-03-08T04:43:30.425Z,25.60
2018-03-08T04:44:30.531Z,25.61
2018-03-08T04:45:30.578Z,25.58
2018-03-08T04:46:30.670Z,25.60
2018-03-08T04:47:30.765Z,25.58
2018-03-08T04:48:30.834Z,25.55
2018-03-08T04:49:30.894Z,25.60
2018-03-08T04:50:30.972Z,25.55
2018-03-08T04:51:31.056Z,25.55
2018-03-08T04:52:31.127Z,25.64
2018-03-08T04:53:31.239Z,25.55
2018-03-08T04:54:31.279Z,25.57
2018-03-08T04:55:31.355Z,25.65
2018-03-08T04:56:31.454Z,25.54
2018-03-08T04:57:31.518Z,25.55
2018-03-08T04:58:31.588Z,25.58
2018-03-08T04:59:31.703Z,25.54
2018-03-08T05:00:31.750Z,25.54
2018-03-08T05:01:31.853Z,25.55
2018-03-08T05:02:31.900Z,25.61
2018-03-08T05:03:32.008Z,25.52
2018-03-08T05:04:32.070Z,25.57
2018-03-08T05:05:32.155Z,25.54
2018-03-08T05:06:32.220Z,25.54
2018-03-08T05:07:32.301Z,25.51
2018-03-08T05:08:32.377Z,25.52
2018-03-08T05:09:32.454Z,25.55
2018-03-08T05:10:32.527Z,25.54
2018-03-08T05:11:32.632Z,25.52
2018-03-08T05:12:32.694Z,25.54
2018-03-08T05:13:32.787Z,25.54
2018-03-08T05:14:32.850Z,25.54
2018-03-08T05:15:32.945Z,25.51
2018-03-08T05:16:33.004Z,25.58
2018-03-08T05:17:33.076Z,25.52
2018-03-08T05:18:33.160Z,25.58
2018-03-08T05:19:33.238Z,25.52
2018-03-08T05:20:33.319Z,25.60
2018-03-08T05:21:33.395Z,25.47
2018-03-08T05:22:33.464Z,25.57
2018-03-08T05:23:33.561Z,25.60
2018-03-08T05:24:33.639Z,25.57
2018-03-08T05:25:33.704Z,25.45
2018-03-08T05:26:33.791Z,25.60
2018-03-08T05:27:33.861Z,25.55
2018-03-08T05:28:33.944Z,25.52
2018-03-08T05:29:35.245Z,25.57
2018-03-08T05:30:34.098Z,25.52
2018-03-08T05:31:34.168Z,25.54
2018-03-08T05:32:34.259Z,25.52
2018-03-08T05:33:34.362Z,25.57
2018-03-08T05:34:34.408Z,25.52
2018-03-08T05:35:34.497Z,25.52
2018-03-08T05:36:34.558Z,25.57
2018-03-08T05:37:34.636Z,25.52
2018-03-08T05:38:34.721Z,25.54
2018-03-08T05:39:34.804Z,25.54
2018-03-08T05:40:34.887Z,25.51
2018-03-08T05:41:34.967Z,25.52
2018-03-08T05:42:35.029Z,25.47
2018-03-08T05:43:35.114Z,25.50
2018-03-08T05:44:35.181Z,25.45
2018-03-08T05:45:35.272Z,25.52
2018-03-08T05:46:35.357Z,25.47
2018-03-08T05:47:35.461Z,25.46
2018-03-08T05:48:35.536Z,25.46
2018-03-08T05:49:35.580Z,25.45
2018-03-08T05:50:35.648Z,25.52
2018-03-08T05:51:35.728Z,25.51
2018-03-08T05:52:35.812Z,25.50
2018-03-08T05:53:35.903Z,25.51
2018-03-08T05:54:35.989Z,25.51
2018-03-08T05:55:36.039Z,25.55
2018-03-08T05:56:36.124Z,25.54
2018-03-08T05:57:36.206Z,25.42
2018-03-08T05:58:36.281Z,25.45
2018-03-08T05:59:36.368Z,25.42
2018-03-08T06:00:36.454Z,25.45
2018-03-08T06:01:36.506Z,25.51
2018-03-08T06:02:36.590Z,25.47
2018-03-08T06:03:36.663Z,25.40
2018-03-08T06:04:36.747Z,25.46
2018-03-08T06:05:36.846Z,25.45
2018-03-08T06:06:36.921Z,25.45
2018-03-08T06:07:36.983Z,25.46
2018-03-08T06:08:37.108Z,25.45
2018-03-08T06:09:37.161Z,25.51
2018-03-08T06:10:37.253Z,25.42
2018-03-08T06:11:37.319Z,25.43
2018-03-08T06:12:37.403Z,25.42
2018-03-08T06:13:37.471Z,25.45
2018-03-08T06:14:37.522Z,25.42
2018-03-08T06:15:37.605Z,25.45
2018-03-08T06:16:37.690Z,25.51
2018-03-08T06:17:37.758Z,25.45
2018-03-08T06:18:37.842Z,25.40
2018-03-08T06:19:37.915Z,25.39
2018-03-08T06:20:38.050Z,25.51
2018-03-08T06:21:38.063Z,25.46
2018-03-08T06:22:38.149Z,25.47
2018-03-08T06:23:38.229Z,25.47
2018-03-08T06:24:38.303Z,25.47
2018-03-08T06:25:38.380Z,25.45
2018-03-08T06:26:38.463Z,25.54
2018-03-08T06:27:38.558Z,25.45
2018-03-08T06:28:38.610Z,25.51
2018-03-08T06:29:38.708Z,25.47
2018-03-08T06:30:38.944Z,25.46
2018-03-08T06:31:38.863Z,25.43
2018-03-08T06:32:38.928Z,25.50
2018-03-08T06:33:39.016Z,25.51
2018-03-08T06:34:39.078Z,25.45
2018-03-08T06:35:39.189Z,25.45
2018-03-08T06:36:39.256Z,25.40
2018-03-08T06:37:39.317Z,25.51
2018-03-08T06:38:39.396Z,25.36
2018-03-08T06:39:39.505Z,25.36
2018-03-08T06:40:39.550Z,25.47
2018-03-08T06:41:39.695Z,25.46
2018-03-08T06:42:39.727Z,25.43
2018-03-08T06:43:39.787Z,25.40
2018-03-08T06:44:39.883Z,25.43
2018-03-08T06:45:39.949Z,25.42
2018-03-08T06:46:40.063Z,25.40
2018-03-08T06:47:40.090Z,25.46
2018-03-08T06:48:40.169Z,25.46
2018-03-08T06:49:40.254Z,25.54
2018-03-08T06:50:40.328Z,25.54
2018-03-08T06:51:40.415Z,25.58
2018-03-08T06:52:40.488Z,25.57
2018-03-08T06:53:40.565Z,25.52
2018-03-08T06:54:40.654Z,25.55
2018-03-08T06:55:40.741Z,25.51
2018-03-08T06:56:40.834Z,25.55
2018-03-08T06:57:40.877Z,25.54
2018-03-08T06:58:40.963Z,25.52
2018-03-08T06:59:41.034Z,25.57
2018-03-08T07:00:41.112Z,25.70
2018-03-08T07:01:41.202Z,25.69
2018-03-08T07:02:41.268Z,25.70
2018-03-08T07:03:41.371Z,25.77
2018-03-08T07:04:41.440Z,25.79
2018-03-08T07:05:41.498Z,25.76
2018-03-08T07:06:41.584Z,25.73
2018-03-08T07:07:41.690Z,25.73
2018-03-08T07:08:41.731Z,25.75
2018-03-08T07:09:41.810Z,25.76
2018-03-08T07:10:41.899Z,25.70
2018-03-08T07:11:41.974Z,25.82
2018-03-08T07:12:42.063Z,25.83
2018-03-08T07:13:42.119Z,25.90
2018-03-08T07:14:42.273Z,25.87
2018-03-08T07:15:42.293Z,25.87
2018-03-08T07:16:42.367Z,25.85
2018-03-08T07:17:42.435Z,25.94
2018-03-08T07:18:42.518Z,26.01
2018-03-08T07:19:42.591Z,26.01
2018-03-08T07:20:42.670Z,25.99
2018-03-08T07:21:42.756Z,26.02
2018-03-08T07:22:42.821Z,26.05
2018-03-08T07:23:42.912Z,26.10
2018-03-08T07:24:42.995Z,26.15
2018-03-08T07:25:43.071Z,26.18
2018-03-08T07:26:43.148Z,26.28
2018-03-08T07:27:43.232Z,26.28
2018-03-08T07:28:43.299Z,26.30
2018-03-08T07:29:43.380Z,26.28
2018-03-08T07:30:43.466Z,26.26
2018-03-08T07:31:43.540Z,26.39
2018-03-08T07:32:43.616Z,26.32
2018-03-08T07:33:43.686Z,26.50
2018-03-08T07:34:43.769Z,26.43
2018-03-08T07:35:43.843Z,26.48
2018-03-08T07:36:43.935Z,26.58
2018-03-08T07:37:44.002Z,26.60
2018-03-08T07:38:44.105Z,26.58
2018-03-08T07:39:44.159Z,26.57
2018-03-08T07:40:44.239Z,26.75
2018-03-08T07:41:44.321Z,26.76
2018-03-08T07:42:44.391Z,26.77
2018-03-08T07:43:44.511Z,26.76
2018-03-08T07:44:44.553Z,26.81
2018-03-08T07:45:44.635Z,26.92
2018-03-08T07:46:44.713Z,26.95
2018-03-08T07:47:44.787Z,26.94
2018-03-08T07:48:44.862Z,26.97
2018-03-08T07:49:44.940Z,27.04
2018-03-08T07:50:45.028Z,27.04
2018-03-08T07:51:45.258Z,26.95
2018-03-08T07:52:45.187Z,26.97
2018-03-08T07:53:45.267Z,26.91
2018-03-08T07:54:45.353Z,27.00
2018-03-08T07:55:45.454Z,26.99
2018-03-08T07:56:45.504Z,26.95
2018-03-08T07:57:45.577Z,26.99
2018-03-08T07:58:45.650Z,26.99
2018-03-08T07:59:45.728Z,26.94
2018-03-08T08:00:45.839Z,26.92
2018-03-08T08:01:45.889Z,26.91
2018-03-08T08:02:45.971Z,26.95
2018-03-08T08:03:46.049Z,26.91
2018-03-08T08:04:46.157Z,26.94
2018-03-08T08:05:46.207Z,26.97
2018-03-08T08:06:46.666Z,26.94
2018-03-08T08:07:46.373Z,26.91
2018-03-08T08:08:46.452Z,26.84
2018-03-08T08:09:46.521Z,26.85
2018-03-08T08:10:46.656Z,26.87
2018-03-08T08:11:46.684Z,26.88
2018-03-08T08:12:46.768Z,26.82
2018-03-08T08:13:46.858Z,26.81
2018-03-08T08:14:46.908Z,26.82
2018-03-08T08:15:47.001Z,26.87
2018-03-08T08:16:47.070Z,26.85
2018-03-08T08:17:47.159Z,26.91
2018-03-08T08:18:47.229Z,26.85
2018-03-08T08:19:47.313Z,26.89
2018-03-08T08:20:47.390Z,26.89
2018-03-08T08:21:47.463Z,26.95
2018-03-08T08:22:47.553Z,27.02
2018-03-08T08:23:47.657Z,27.13
2018-03-08T08:24:47.700Z,27.09
2018-03-08T08:25:52.458Z,27.09
2018-03-08T08:26:47.879Z,26.95
2018-03-08T08:27:48.160Z,27.02
2018-03-08T08:28:48.042Z,26.99
2018-03-08T08:29:48.093Z,27.07
2018-03-08T08:30:48.179Z,27.12
2018-03-08T08:31:48.271Z,27.12
2018-03-08T08:32:48.340Z,27.19
2018-03-08T08:33:48.419Z,27.24
2018-03-08T08:34:48.864Z,27.29
2018-03-08T08:35:48.567Z,27.32
2018-03-08T08:36:48.664Z,27.44
2018-03-08T08:37:48.789Z,27.62
2018-03-08T08:38:48.809Z,27.62
2018-03-08T08:39:48.917Z,27.69
2018-03-08T08:40:48.977Z,27.81
2018-03-08T08:41:49.056Z,28.22
2018-03-08T08:42:49.125Z,28.66
2018-03-08T08:43:49.222Z,28.58
2018-03-08T08:44:49.297Z,28.71
2018-03-08T08:45:49.678Z,28.67
2018-03-08T08:46:49.449Z,28.56
2018-03-08T08:47:49.521Z,28.46
2018-03-08T08:48:49.604Z,28.31
2018-03-08T08:49:49.686Z,28.33
2018-03-08T08:50:49.767Z,28.29
2018-03-08T08:51:49.841Z,28.29
2018-03-08T08:52:49.949Z,28.46
2018-03-08T08:53:49.996Z,28.54
2018-03-08T08:54:50.085Z,28.58
2018-03-08T08:55:50.159Z,28.55
2018-03-08T08:56:50.259Z,28.86
2018-03-08T08:57:50.328Z,28.98
2018-03-08T08:58:50.400Z,29.18
2018-03-08T08:59:50.475Z,29.04
2018-03-08T09:00:50.558Z,28.92
2018-03-08T09:01:50.652Z,28.68
2018-03-08T09:02:50.717Z,28.54
2018-03-08T09:03:50.813Z,28.44
2018-03-08T09:04:50.877Z,28.39
2018-03-08T09:05:50.963Z,28.30
2018-03-08T09:06:51.036Z,28.39
2018-03-08T09:07:51.118Z,28.61
2018-03-08T09:08:51.201Z,28.59
2018-03-08T09:09:51.279Z,28.71
2018-03-08T09:10:51.353Z,29.02
2018-03-08T09:11:51.450Z,29.46
2018-03-08T09:12:51.519Z,29.67
2018-03-08T09:13:51.593Z,29.73
2018-03-08T09:14:51.671Z,29.39
2018-03-08T09:15:51.759Z,29.28
2018-03-08T09:16:51.863Z,29.15
2018-03-08T09:17:51.919Z,28.96
2018-03-08T09:18:51.987Z,29.09
2018-03-08T09:19:52.077Z,28.96
2018-03-08T09:20:52.151Z,28.83
2018-03-08T09:21:52.226Z,28.78
2018-03-08T09:22:52.314Z,28.89
2018-03-08T09:23:52.445Z,29.00
2018-03-08T09:24:52.471Z,29.00
2018-03-08T09:25:52.554Z,29.00
2018-03-08T09:26:52.669Z,28.92
2018-03-08T09:27:52.791Z,28.92
2018-03-08T09:28:52.796Z,28.71
2018-03-08T09:29:52.894Z,28.66
2018-03-08T09:30:52.948Z,28.64
2018-03-08T09:31:53.141Z,28.61
2018-03-08T09:32:53.172Z,28.66
2018-03-08T09:33:53.201Z,28.62
2018-03-08T09:34:53.273Z,28.61
2018-03-08T09:35:53.355Z,28.58
2018-03-08T09:36:53.434Z,28.80
2018-03-08T09:37:54.447Z,28.73
2018-03-08T09:38:53.641Z,28.71
2018-03-08T09:39:53.666Z,28.71
2018-03-08T09:40:53.750Z,28.67
2018-03-08T09:41:53.925Z,28.56
2018-03-08T09:42:53.909Z,28.61
2018-03-08T09:43:53.999Z,28.54
2018-03-08T09:44:54.086Z,28.51
2018-03-08T09:45:54.147Z,28.46
2018-03-08T09:46:54.231Z,28.48
2018-03-08T09:47:54.315Z,28.46
2018-03-08T09:48:54.396Z,28.56
2018-03-08T09:49:54.464Z,28.49
2018-03-08T09:50:54.564Z,28.59
2018-03-08T09:51:54.769Z,28.70
2018-03-08T09:52:54.709Z,28.88
2018-03-08T09:53:54.785Z,28.83
2018-03-08T09:54:54.865Z,28.81
2018-03-08T09:55:54.950Z,28.96
2018-03-08T09:56:55.031Z,28.98
2018-03-08T09:57:55.126Z,28.93
2018-03-08T09:58:55.215Z,28.95
2018-03-08T09:59:55.272Z,29.09
2018-03-08T10:00:55.375Z,29.16
2018-03-08T10:01:55.423Z,29.19
2018-03-08T10:02:55.522Z,29.19
2018-03-08T10:03:55.625Z,29.19
2018-03-08T10:05:03.497Z,29.15
2018-03-08T10:06:50.231Z,28.85
2018-03-08T10:07:57.263Z,28.83
2018-03-08T10:09:43.282Z,29.05
2018-03-08T10:10:43.381Z,29.41
2018-03-08T10:12:36.397Z,29.80
2018-03-08T10:13:36.632Z,29.86
2018-03-08T10:15:29.490Z,30.01
2018-03-08T10:16:29.764Z,29.86
2018-03-08T10:18:22.769Z,29.70
2018-03-08T10:19:22.682Z,29.82
2018-03-08T10:21:15.711Z,29.74
2018-03-08T10:22:15.796Z,29.63
2018-03-08T10:24:09.561Z,29.37
2018-03-08T10:25:08.911Z,29.58
2018-03-08T10:27:01.947Z,29.73
2018-03-08T10:28:02.039Z,29.61
2018-03-08T10:29:55.082Z,29.87
2018-03-08T10:30:55.150Z,29.65
2018-03-08T10:32:48.154Z,29.48
2018-03-08T10:33:48.245Z,29.37
2018-03-08T10:35:41.283Z,29.11
2018-03-08T10:36:41.353Z,28.95
2018-03-08T10:37:41.431Z,28.85
2018-03-08T10:38:41.602Z,28.74
2018-03-08T10:39:42.238Z,28.62
2018-03-08T10:43:41.934Z,28.55
2018-03-08T10:44:41.994Z,28.44
2018-03-08T10:45:42.092Z,28.41
2018-03-08T10:46:42.204Z,28.58
2018-03-08T10:47:42.230Z,28.51
2018-03-08T10:49:42.394Z,28.34
2018-03-08T10:50:42.476Z,28.22
2018-03-08T10:51:42.557Z,28.15
2018-03-08T10:52:42.635Z,28.09
2018-03-08T10:53:42.743Z,27.94
2018-03-08T10:54:42.790Z,27.92
2018-03-08T10:55:42.880Z,27.82
2018-03-08T10:56:42.956Z,27.92
2018-03-08T10:57:43.031Z,27.81
2018-03-08T10:58:43.101Z,27.77
2018-03-08T10:59:44.266Z,27.84
2018-03-08T11:00:43.291Z,27.88
2018-03-08T11:01:43.342Z,27.81
2018-03-08T11:02:43.454Z,27.94
2018-03-08T11:03:43.516Z,27.93
2018-03-08T11:04:43.577Z,28.00
2018-03-08T11:05:43.659Z,27.97
2018-03-08T11:06:43.756Z,28.02
2018-03-08T11:07:43.819Z,28.11
2018-03-08T11:08:43.908Z,28.14
2018-03-08T11:09:44.030Z,28.31
2018-03-08T11:10:44.095Z,28.48
2018-03-08T11:11:44.154Z,28.46
2018-03-08T11:12:44.225Z,28.43
2018-03-08T11:13:44.296Z,28.49
2018-03-08T11:14:44.403Z,28.49
2018-03-08T11:15:44.496Z,28.44
2018-03-08T11:16:44.541Z,28.48
2018-03-08T11:17:44.627Z,28.46
2018-03-08T11:18:44.721Z,28.49
2018-03-08T11:19:44.782Z,28.43
2018-03-08T11:20:44.885Z,28.31
2018-03-08T11:21:44.997Z,28.36
2018-03-08T11:22:45.014Z,28.43
2018-03-08T11:23:45.099Z,28.34
2018-03-08T11:24:45.173Z,28.29
2018-03-08T11:25:45.278Z,28.24
2018-03-08T11:26:45.331Z,28.21
2018-03-08T11:27:45.501Z,28.14
2018-03-08T11:28:45.503Z,28.06
2018-03-08T11:29:45.573Z,28.03
2018-03-08T11:30:45.654Z,27.97
2018-03-08T11:31:45.787Z,27.96
2018-03-08T11:32:45.802Z,27.92
2018-03-08T11:33:45.907Z,27.84
2018-03-08T11:34:45.984Z,27.85
2018-03-08T11:35:46.053Z,27.77
2018-03-08T11:36:46.134Z,27.77
2018-03-08T11:37:47.726Z,27.70
2018-03-08T11:38:46.363Z,27.77
2018-03-08T11:39:46.364Z,27.74
2018-03-08T11:40:46.453Z,27.72
2018-03-08T11:41:46.658Z,27.75
2018-03-08T11:42:46.620Z,27.81
2018-03-08T11:43:46.692Z,27.87
2018-03-08T11:44:46.778Z,27.87
2018-03-08T11:45:46.910Z,27.93
2018-03-08T11:46:46.922Z,27.96
2018-03-08T11:47:48.246Z,27.93
2018-03-08T11:48:47.120Z,27.85
2018-03-08T11:49:47.153Z,27.79
2018-03-08T11:50:47.250Z,27.85
2018-03-08T11:51:48.109Z,27.82
2018-03-08T11:52:47.400Z,27.79
2018-03-08T11:53:47.491Z,27.72
2018-03-08T11:54:47.578Z,27.69
2018-03-08T11:55:47.676Z,27.69
2018-03-08T11:56:47.709Z,27.67
2018-03-08T11:57:47.888Z,27.70
2018-03-08T11:58:47.880Z,27.54
2018-03-08T11:59:47.962Z,27.59
2018-03-08T12:00:48.083Z,27.50
2018-03-08T12:01:48.130Z,27.43
2018-03-08T12:02:48.214Z,27.50
2018-03-08T12:03:48.284Z,27.37
2018-03-08T12:04:48.359Z,27.43
2018-03-08T12:05:48.447Z,27.32
2018-03-08T12:06:48.514Z,27.32
2018-03-08T12:07:48.583Z,27.32
2018-03-08T12:08:48.790Z,27.34
2018-03-08T12:09:48.765Z,27.34
2018-03-08T12:10:48.834Z,27.31
2018-03-08T12:11:48.920Z,27.24
2018-03-08T12:12:49.011Z,27.27
2018-03-08T12:13:49.145Z,27.22
2018-03-08T12:14:49.169Z,27.18
2018-03-08T12:15:49.284Z,27.18
2018-03-08T12:16:49.348Z,27.18
2018-03-08T12:17:49.465Z,27.19
2018-03-08T12:18:49.470Z,27.17
2018-03-08T12:19:49.641Z,27.04
2018-03-08T12:20:49.841Z,27.13
2018-03-08T12:21:50.768Z,27.04
2018-03-08T12:22:49.869Z,27.09
2018-03-08T12:23:49.885Z,27.03
2018-03-08T12:24:49.950Z,26.97
2018-03-08T12:25:50.017Z,27.03
2018-03-08T12:26:50.120Z,26.95
2018-03-08T12:27:50.210Z,26.95
2018-03-08T12:28:50.286Z,26.91
2018-03-08T12:29:50.338Z,26.89
2018-03-08T12:30:50.429Z,26.88
2018-03-08T12:31:50.493Z,26.81
2018-03-08T12:32:50.568Z,26.77
2018-03-08T12:33:50.659Z,26.73
2018-03-08T12:34:50.727Z,26.80
2018-03-08T12:35:50.808Z,26.66
2018-03-08T12:36:50.890Z,26.67
2018-03-08T12:37:50.959Z,26.70
2018-03-08T12:38:51.049Z,26.58
2018-03-08T12:39:51.118Z,26.58
2018-03-08T12:40:51.214Z,26.60
2018-03-08T12:41:51.273Z,26.57
2018-03-08T12:42:51.392Z,26.54
2018-03-08T12:43:51.436Z,26.57
2018-03-08T12:44:51.538Z,26.58
2018-03-08T12:45:51.627Z,26.58
2018-03-08T12:46:51.673Z,26.60
2018-03-08T12:47:51.743Z,26.55
2018-03-08T12:48:51.929Z,26.52
2018-03-08T12:49:51.902Z,26.48
2018-03-08T12:50:51.991Z,26.47
2018-03-08T12:51:52.076Z,26.48
2018-03-08T12:52:52.165Z,26.43
2018-03-08T12:53:52.239Z,26.40
2018-03-08T12:54:52.300Z,26.44
2018-03-08T12:55:52.406Z,26.45
2018-03-08T12:56:52.462Z,26.40
2018-03-08T12:57:52.554Z,26.35
2018-03-08T12:58:52.625Z,26.37
2018-03-08T12:59:52.693Z,26.37
2018-03-08T13:00:52.776Z,26.33
2018-03-08T13:01:52.865Z,26.33
2018-03-08T13:02:52.949Z,26.30
2018-03-08T13:03:53.001Z,26.28
2018-03-08T13:04:53.078Z,26.35
2018-03-08T13:05:53.322Z,26.37
2018-03-08T13:06:53.295Z,26.36